createdAt,value
2023-02-11T00:03:59.259Z,12.63
2023-02-11T00:06:29.124Z,12.57
2023-02-11T00:08:57.800Z,12.56
2023-02-11T00:11:26.651Z,12.83
2023-02-11T00:13:53.618Z,12.61
2023-02-11T00:16:21.315Z,12.56
2023-02-11T00:18:49.816Z,12.80
2023-02-11T00:21:20.246Z,12.88
2023-02-11T00:23:47.724Z,12.64
2023-02-11T00:29:11.945Z,12.56
2023-02-11T00:31:40.817Z,12.67
2023-02-11T00:34:08.139Z,12.73
2023-02-11T00:36:36.435Z,12.47
2023-02-11T00:39:04.663Z,12.46
2023-02-11T00:41:33.116Z,12.66
2023-02-11T00:44:00.381Z,12.67
2023-02-11T00:46:27.526Z,12.74
2023-02-11T00:48:54.568Z,12.61
2023-02-11T00:51:25.257Z,12.76
2023-02-11T00:53:52.827Z,12.61
2023-02-11T00:56:20.396Z,12.54
2023-02-11T00:58:49.131Z,12.70
2023-02-11T01:01:17.684Z,12.84
2023-02-11T01:03:46.967Z,12.79
2023-02-11T01:06:14.785Z,12.83
2023-02-11T01:08:42.240Z,12.83
2023-02-11T01:11:16.550Z,12.64
2023-02-11T01:13:46.501Z,12.60
2023-02-11T01:16:15.155Z,12.68
2023-02-11T01:18:43.248Z,12.73
2023-02-11T01:21:10.899Z,12.86
2023-02-11T01:23:37.841Z,12.80
2023-02-11T01:26:05.795Z,12.64
2023-02-11T01:28:33.785Z,12.87
2023-02-11T01:31:03.133Z,12.59
2023-02-11T01:33:31.782Z,12.68
2023-02-11T01:36:01.959Z,12.63
2023-02-11T01:38:29.061Z,12.36
2023-02-11T01:41:01.166Z,12.60
2023-02-11T01:43:35.507Z,12.76
2023-02-11T01:46:31.895Z,12.76
2023-02-11T01:49:07.351Z,12.91
2023-02-11T01:51:40.059Z,12.68
2023-02-11T01:54:14.271Z,12.67
2023-02-11T01:56:49.333Z,12.66
2023-02-11T01:59:23.185Z,12.79
2023-02-11T02:01:58.766Z,12.64
2023-02-11T02:04:35.904Z,12.80
2023-02-11T02:07:09.114Z,12.91
2023-02-11T02:09:42.539Z,12.88
2023-02-11T02:12:09.428Z,13.01
2023-02-11T02:14:39.681Z,13.12
2023-02-11T02:17:09.264Z,13.11
2023-02-11T02:20:11.319Z,12.95
2023-02-11T02:23:26.047Z,13.15
2023-02-11T02:26:43.839Z,13.24
2023-02-11T02:30:01.139Z,13.10
2023-02-11T02:32:52.267Z,13.24
2023-02-11T02:35:35.637Z,13.46
2023-02-11T02:38:13.015Z,13.44
2023-02-11T02:40:47.531Z,13.42
2023-02-11T02:43:16.633Z,13.48
2023-02-11T02:45:43.896Z,13.38
2023-02-11T02:48:26.750Z,13.52
2023-02-11T02:51:10.066Z,13.56
2023-02-11T02:53:54.161Z,13.51
2023-02-11T02:56:34.979Z,13.51
2023-02-11T02:59:33.497Z,13.41
2023-02-11T03:02:14.259Z,13.12
2023-02-11T03:04:52.445Z,13.38
2023-02-11T03:07:35.673Z,13.42
2023-02-11T03:10:09.252Z,13.42
2023-02-11T03:12:38.110Z,13.42
2023-02-11T03:15:08.344Z,13.66
2023-02-11T03:17:40.558Z,13.58
2023-02-11T03:20:14.267Z,13.63
2023-02-11T03:22:47.800Z,13.72
2023-02-11T03:25:15.790Z,13.83
2023-02-11T03:27:51.941Z,13.90
2023-02-11T03:30:53.115Z,13.96
2023-02-11T03:33:28.652Z,14.00
2023-02-11T03:36:04.918Z,13.91
2023-02-11T03:38:37.396Z,13.79
2023-02-11T03:41:07.886Z,13.90
2023-02-11T03:43:42.516Z,13.87
2023-02-11T03:46:15.209Z,13.97
2023-02-11T03:48:48.045Z,13.61
2023-02-11T03:51:17.589Z,13.68
2023-02-11T03:53:46.918Z,13.82
2023-02-11T03:56:21.240Z,14.00
2023-02-11T03:58:48.909Z,13.99
2023-02-11T04:04:08.783Z,13.76
2023-02-11T04:06:37.319Z,13.99
2023-02-11T04:09:06.944Z,14.02
2023-02-11T04:11:34.154Z,14.02
2023-02-11T04:14:01.530Z,13.76
2023-02-11T04:16:29.161Z,13.91
2023-02-11T04:19:22.246Z,13.90
2023-02-11T04:21:52.978Z,13.97
2023-02-11T04:24:20.475Z,13.96
2023-02-11T04:26:48.243Z,14.10
2023-02-11T04:29:15.632Z,14.16
2023-02-11T04:31:42.746Z,14.19
2023-02-11T04:34:09.801Z,14.14
2023-02-11T04:36:40.293Z,14.07
2023-02-11T04:39:08.554Z,14.00
2023-02-11T04:41:35.857Z,14.13
2023-02-11T04:44:02.877Z,14.21
2023-02-11T04:46:29.765Z,14.21
2023-02-11T04:48:57.258Z,14.16
2023-02-11T04:51:24.877Z,14.27
2023-02-11T04:53:51.768Z,14.45
2023-02-11T04:56:21.637Z,14.36
2023-02-11T04:58:48.707Z,14.16
2023-02-11T05:01:16.949Z,14.07
2023-02-11T05:03:55.665Z,14.12
2023-02-11T05:06:29.753Z,14.19
2023-02-11T05:08:57.788Z,14.16
2023-02-11T05:11:26.381Z,14.19
2023-02-11T05:13:54.380Z,14.21
2023-02-11T05:16:21.563Z,14.36
2023-02-11T05:18:50.837Z,14.44
2023-02-11T05:21:20.014Z,14.47
2023-02-11T05:23:47.686Z,14.33
2023-02-11T05:26:15.483Z,14.29
2023-02-11T05:28:45.104Z,14.29
2023-02-11T05:31:12.573Z,14.44
2023-02-11T05:33:39.677Z,14.41
2023-02-11T05:36:09.890Z,14.33
2023-02-11T05:38:38.136Z,14.30
2023-02-11T05:41:07.234Z,14.17
2023-02-11T05:43:34.622Z,14.23
2023-02-11T05:46:03.834Z,14.33
2023-02-11T05:48:31.890Z,14.38
2023-02-11T05:50:59.106Z,14.47
2023-02-11T05:53:26.451Z,14.48
2023-02-11T05:55:53.545Z,14.52
2023-02-11T05:58:20.463Z,14.67
2023-02-11T06:00:47.328Z,14.44
2023-02-11T06:03:15.664Z,14.54
2023-02-11T06:05:43.807Z,14.61
2023-02-11T06:08:11.339Z,14.44
2023-02-11T06:10:38.969Z,14.31
2023-02-11T06:13:06.435Z,14.38
2023-02-11T06:15:33.592Z,14.48
2023-02-11T06:18:01.702Z,14.47
2023-02-11T06:20:30.115Z,14.45
2023-02-11T06:22:57.844Z,14.36
2023-02-11T06:25:25.052Z,14.38
2023-02-11T06:31:08.389Z,14.45
2023-02-11T06:33:36.008Z,14.54
2023-02-11T06:36:13.088Z,14.61
2023-02-11T06:38:40.695Z,14.54
2023-02-11T06:41:10.714Z,14.64
2023-02-11T06:43:37.591Z,14.48
2023-02-11T06:46:05.080Z,14.64
2023-02-11T06:48:32.156Z,14.64
2023-02-11T06:51:03.052Z,14.71
2023-02-11T06:53:32.185Z,14.64
2023-02-11T06:56:03.837Z,14.61
2023-02-11T06:58:30.779Z,14.34
2023-02-11T07:00:58.238Z,14.57
2023-02-11T07:03:26.316Z,14.45
2023-02-11T07:05:53.356Z,14.29
2023-02-11T07:08:20.725Z,14.42
2023-02-11T07:10:48.981Z,14.27
2023-02-11T07:13:16.411Z,14.09
2023-02-11T07:15:44.124Z,14.33
2023-02-11T07:18:14.293Z,14.45
2023-02-11T07:20:41.828Z,14.41
2023-02-11T07:23:09.000Z,14.21
2023-02-11T07:25:36.568Z,14.38
2023-02-11T07:30:56.458Z,14.61
2023-02-11T07:33:23.706Z,14.60
2023-02-11T07:35:50.938Z,14.78
2023-02-11T07:38:18.219Z,14.74
2023-02-11T07:40:45.033Z,14.79
2023-02-11T07:43:13.632Z,14.81
2023-02-11T07:45:40.576Z,14.64
2023-02-11T07:48:07.809Z,14.63
2023-02-11T07:50:34.741Z,14.47
2023-02-11T07:53:02.570Z,14.60
2023-02-11T07:55:29.684Z,14.74
2023-02-11T07:57:57.479Z,14.60
2023-02-11T08:00:25.795Z,14.61
2023-02-11T08:02:52.853Z,14.52
2023-02-11T08:05:20.118Z,14.47
2023-02-11T08:07:47.021Z,14.68
2023-02-11T08:10:14.037Z,14.61
2023-02-11T08:12:40.847Z,14.63
2023-02-11T08:15:08.995Z,14.75
2023-02-11T08:17:38.064Z,14.89
2023-02-11T08:20:05.957Z,14.82
2023-02-11T08:22:33.774Z,14.92
2023-02-11T08:25:01.135Z,14.91
2023-02-11T08:27:28.320Z,14.85
2023-02-11T08:29:56.011Z,14.99
2023-02-11T08:32:23.358Z,14.89
2023-02-11T08:34:52.599Z,14.74
2023-02-11T08:37:20.241Z,14.88
2023-02-11T08:39:47.512Z,14.88
2023-02-11T08:42:14.604Z,14.92
2023-02-11T08:44:41.731Z,14.92
2023-02-11T08:47:08.880Z,15.01
2023-02-11T08:49:36.046Z,14.92
2023-02-11T08:52:05.180Z,14.93
2023-02-11T08:54:32.381Z,15.05
2023-02-11T08:56:59.263Z,15.12
2023-02-11T08:59:26.285Z,15.18
2023-02-11T09:01:53.286Z,15.09
2023-02-11T09:04:20.624Z,15.11
2023-02-11T09:06:47.594Z,15.26
2023-02-11T09:09:16.524Z,15.02
2023-02-11T09:11:45.237Z,15.09
2023-02-11T09:14:18.769Z,15.08
2023-02-11T09:16:45.718Z,15.26
2023-02-11T09:19:12.810Z,15.25
2023-02-11T09:21:39.987Z,15.30
2023-02-11T09:24:07.427Z,15.23
2023-02-11T09:26:37.114Z,15.35
2023-02-11T09:29:05.328Z,15.18
2023-02-11T09:31:34.370Z,15.23
2023-02-11T09:34:05.461Z,15.22
2023-02-11T09:36:36.033Z,15.09
2023-02-11T09:39:09.427Z,14.92
2023-02-11T09:42:07.674Z,15.08
2023-02-11T09:44:37.495Z,15.08
2023-02-11T09:47:13.415Z,15.09
2023-02-11T09:49:47.102Z,15.25
2023-02-11T09:52:26.302Z,14.96
2023-02-11T09:54:57.610Z,15.15
2023-02-11T09:57:32.242Z,15.16
2023-02-11T09:59:59.807Z,15.09
2023-02-11T10:02:39.544Z,15.18
2023-02-11T10:05:29.360Z,15.28
2023-02-11T10:08:08.893Z,15.20
2023-02-11T10:10:50.879Z,15.38
2023-02-11T10:13:42.158Z,15.50
2023-02-11T10:16:31.007Z,15.44
2023-02-11T10:19:30.468Z,15.46
2023-02-11T10:22:09.931Z,15.61
2023-02-11T10:24:40.058Z,15.64
2023-02-11T10:27:36.185Z,15.52
2023-02-11T10:30:19.090Z,15.57
2023-02-11T10:32:54.679Z,15.60
2023-02-11T10:35:23.631Z,15.63
2023-02-11T10:37:50.900Z,15.59
2023-02-11T10:40:21.305Z,15.63
2023-02-11T10:42:55.126Z,15.63
2023-02-11T10:45:30.312Z,15.56
2023-02-11T10:47:57.246Z,15.73
2023-02-11T10:50:26.982Z,15.73
2023-02-11T10:53:15.585Z,15.70
2023-02-11T10:55:52.347Z,15.83
2023-02-11T10:58:28.359Z,15.59
2023-02-11T11:00:59.781Z,15.59
2023-02-11T11:03:32.852Z,15.63
2023-02-11T11:08:55.648Z,15.56
2023-02-11T11:11:25.258Z,15.67
2023-02-11T11:13:58.796Z,15.59
2023-02-11T11:16:28.934Z,15.66
2023-02-11T11:19:22.449Z,15.66
2023-02-11T11:21:51.908Z,15.61
2023-02-11T11:24:24.144Z,15.50
2023-02-11T11:26:56.792Z,15.38
2023-02-11T11:29:32.895Z,15.35
2023-02-11T11:32:06.680Z,15.43
2023-02-11T11:34:37.638Z,15.74
2023-02-11T11:37:13.166Z,15.97
2023-02-11T11:39:40.832Z,16.01
2023-02-11T11:45:26.268Z,15.90
2023-02-11T11:47:59.414Z,15.87
2023-02-11T11:50:32.753Z,15.90
2023-02-11T11:53:05.394Z,15.91
2023-02-11T11:55:41.004Z,15.81
2023-02-11T11:58:15.284Z,15.80
2023-02-11T12:00:54.747Z,15.98
2023-02-11T12:04:09.784Z,15.93
2023-02-11T12:07:00.127Z,15.87
2023-02-11T12:09:40.988Z,15.90
2023-02-11T12:12:31.394Z,15.94
2023-02-11T12:15:17.830Z,16.07
2023-02-11T12:18:14.839Z,16.08
2023-02-11T12:21:04.683Z,16.31
2023-02-11T12:23:54.382Z,16.44
2023-02-11T12:26:25.640Z,16.49
2023-02-11T12:29:09.881Z,16.63
2023-02-11T12:31:59.568Z,16.63
2023-02-11T12:35:03.335Z,16.75
2023-02-11T12:37:48.856Z,16.58
2023-02-11T12:56:51.974Z,16.07
2023-02-11T12:59:38.226Z,16.25
2023-02-11T13:02:20.852Z,16.05
2023-02-11T13:04:52.013Z,16.11
2023-02-11T13:07:28.481Z,15.97
2023-02-11T13:10:03.371Z,15.90
2023-02-11T13:12:33.048Z,16.02
2023-02-11T13:15:10.172Z,15.87
2023-02-11T13:17:48.119Z,15.74
2023-02-11T13:20:36.844Z,15.94
2023-02-11T13:23:16.934Z,15.79
2023-02-11T13:25:52.871Z,15.96
2023-02-11T13:28:38.747Z,16.01
2023-02-11T13:31:07.664Z,15.91
2023-02-11T13:33:39.777Z,16.07
2023-02-11T13:36:22.521Z,16.00
2023-02-11T13:39:00.008Z,16.05
2023-02-11T13:41:33.178Z,15.98
2023-02-11T13:44:06.188Z,15.91
2023-02-11T13:47:01.885Z,15.87
2023-02-11T13:49:36.960Z,15.93
2023-02-11T13:52:18.106Z,16.02
2023-02-11T13:54:50.840Z,16.17
2023-02-11T13:57:39.855Z,16.17
2023-02-11T14:00:48.880Z,16.10
2023-02-11T14:03:33.633Z,15.89
2023-02-11T14:06:17.611Z,15.87
2023-02-11T14:09:01.538Z,15.79
2023-02-11T14:11:48.619Z,15.86
2023-02-11T14:14:21.627Z,15.74
2023-02-11T14:17:18.609Z,15.90
2023-02-11T14:19:47.585Z,15.86
2023-02-11T14:22:19.700Z,15.89
2023-02-11T14:24:51.991Z,15.98
2023-02-11T14:27:30.436Z,16.10
2023-02-11T14:30:39.631Z,16.21
2023-02-11T14:33:28.243Z,16.21
2023-02-11T14:36:13.715Z,16.28
2023-02-11T14:38:58.836Z,16.21
2023-02-11T14:41:29.629Z,16.29
2023-02-11T14:44:00.397Z,16.25
2023-02-11T14:46:55.453Z,16.35
2023-02-11T14:49:28.853Z,16.42
2023-02-11T14:52:04.084Z,16.28
2023-02-11T14:54:33.127Z,16.29
2023-02-11T14:57:09.570Z,16.29
2023-02-11T14:59:36.580Z,16.22
2023-02-11T15:02:22.484Z,16.29
2023-02-11T15:04:49.551Z,16.14
2023-02-11T15:07:17.898Z,16.28
2023-02-11T15:09:48.975Z,16.40
2023-02-11T15:12:20.145Z,16.26
2023-02-11T15:14:51.417Z,16.26
2023-02-11T15:17:25.530Z,16.34
2023-02-11T15:19:56.698Z,16.25
2023-02-11T15:22:26.757Z,16.29
2023-02-11T15:25:11.897Z,16.29
2023-02-11T15:27:40.806Z,16.44
2023-02-11T15:30:28.910Z,16.44
2023-02-11T15:32:59.892Z,16.45
2023-02-11T15:35:30.514Z,16.45
2023-02-11T15:37:58.689Z,16.41
2023-02-11T15:40:29.223Z,16.41
2023-02-11T15:42:59.118Z,16.48
2023-02-11T15:45:31.543Z,16.38
2023-02-11T15:48:09.188Z,16.34
2023-02-11T15:50:38.151Z,16.31
2023-02-11T15:53:25.233Z,16.32
2023-02-11T15:55:59.943Z,16.21
2023-02-11T15:58:26.928Z,16.14
2023-02-11T16:00:54.419Z,16.14
2023-02-11T16:03:26.059Z,16.15
2023-02-11T16:05:53.473Z,16.07
2023-02-11T16:08:23.540Z,16.21
2023-02-11T16:10:59.859Z,16.24
2023-02-11T16:13:27.667Z,16.25
2023-02-11T16:15:57.371Z,16.32
2023-02-11T16:18:39.666Z,16.42
2023-02-11T16:21:14.853Z,16.47
2023-02-11T16:23:48.649Z,16.45
2023-02-11T16:26:26.917Z,16.40
2023-02-11T16:29:03.366Z,16.47
2023-02-11T16:31:35.636Z,16.36
2023-02-11T16:34:13.577Z,16.24
2023-02-11T16:36:40.430Z,16.25
2023-02-11T16:39:07.668Z,16.26
2023-02-11T16:41:34.868Z,16.18
2023-02-11T16:44:01.777Z,16.14
2023-02-11T16:46:54.676Z,16.05
2023-02-11T16:49:27.549Z,16.04
2023-02-11T16:52:00.124Z,15.93
2023-02-11T16:54:27.728Z,15.93
2023-02-11T16:56:55.473Z,15.94
2023-02-11T16:59:22.501Z,16.01
2023-02-11T17:01:52.040Z,16.00
2023-02-11T17:04:28.216Z,16.07
2023-02-11T17:06:58.263Z,16.14
2023-02-11T17:09:30.570Z,16.14
2023-02-11T17:11:58.036Z,16.07
2023-02-11T17:14:25.872Z,16.05
2023-02-11T17:16:53.083Z,16.00
2023-02-11T17:19:22.278Z,16.00
2023-02-11T17:21:52.204Z,16.01
2023-02-11T17:24:21.014Z,15.89
2023-02-11T17:26:49.079Z,15.84
2023-02-11T17:29:19.711Z,15.83
2023-02-11T17:31:47.053Z,15.81
2023-02-11T17:34:14.595Z,15.81
2023-02-11T17:36:43.846Z,15.77
2023-02-11T17:39:11.075Z,15.83
2023-02-11T17:41:39.692Z,15.70
2023-02-11T17:46:59.339Z,15.66
2023-02-11T17:49:26.433Z,15.76
2023-02-11T17:51:54.724Z,15.70
2023-02-11T17:54:21.788Z,15.67
2023-02-11T17:56:50.430Z,15.56
2023-02-11T17:59:17.922Z,15.52
2023-02-11T18:01:45.202Z,15.56
2023-02-11T18:04:16.374Z,15.54
2023-02-11T18:06:45.176Z,15.53
2023-02-11T18:09:13.708Z,15.49
2023-02-11T18:11:41.197Z,15.61
2023-02-11T18:14:09.830Z,15.53
2023-02-11T18:16:37.734Z,15.56
2023-02-11T18:19:05.848Z,15.53
2023-02-11T18:21:35.227Z,15.47
2023-02-11T18:24:06.372Z,15.59
2023-02-11T18:26:36.004Z,15.43
2023-02-11T18:29:04.061Z,15.50
2023-02-11T18:31:31.370Z,15.56
2023-02-11T18:33:58.593Z,15.46
2023-02-11T18:36:25.428Z,15.57
2023-02-11T18:38:52.411Z,15.56
2023-02-11T18:41:19.637Z,15.53
2023-02-11T18:43:48.160Z,15.40
2023-02-11T18:46:16.061Z,15.35
2023-02-11T18:48:43.789Z,15.36
2023-02-11T18:51:14.198Z,15.22
2023-02-11T18:53:42.881Z,15.18
2023-02-11T18:56:12.572Z,15.16
2023-02-11T18:58:40.026Z,14.96
2023-02-11T19:01:18.006Z,14.96
2023-02-11T19:03:46.066Z,14.92
2023-02-11T19:06:15.561Z,14.95
2023-02-11T19:08:44.657Z,14.95
2023-02-11T19:11:12.871Z,14.96
2023-02-11T19:13:39.793Z,14.93
2023-02-11T19:16:11.194Z,14.99
2023-02-11T19:18:39.737Z,14.98
2023-02-11T19:21:08.563Z,14.91
2023-02-11T19:23:36.144Z,14.85
2023-02-11T19:26:03.582Z,14.96
2023-02-11T19:28:31.173Z,14.89
2023-02-11T19:30:58.125Z,14.82
2023-02-11T19:33:25.325Z,14.95
2023-02-11T19:35:53.614Z,14.95
2023-02-11T19:38:20.514Z,15.05
2023-02-11T19:40:55.915Z,15.19
2023-02-11T19:43:23.076Z,15.13
2023-02-11T19:45:50.445Z,15.20
2023-02-11T19:48:17.675Z,15.28
2023-02-11T19:50:45.120Z,15.42
2023-02-11T19:53:13.632Z,15.33
2023-02-11T19:55:40.559Z,15.47
2023-02-11T19:58:07.818Z,15.47
2023-02-11T20:00:34.625Z,15.44
2023-02-11T20:03:01.623Z,15.46
2023-02-11T20:05:28.578Z,15.50
2023-02-11T20:07:56.350Z,15.46
2023-02-11T20:10:25.323Z,15.40
2023-02-11T20:12:52.504Z,15.39
2023-02-11T20:15:19.370Z,15.42
2023-02-11T20:17:46.221Z,15.44
2023-02-11T20:20:13.387Z,15.52
2023-02-11T20:22:40.293Z,15.54
2023-02-11T20:25:07.967Z,15.54
2023-02-11T20:27:36.413Z,15.36
2023-02-11T20:30:03.758Z,15.38
2023-02-11T20:32:32.708Z,15.43
2023-02-11T20:35:00.027Z,15.47
2023-02-11T20:37:28.019Z,15.60
2023-02-11T20:39:54.967Z,15.66
2023-02-11T20:42:22.167Z,15.66
2023-02-11T20:44:50.619Z,15.67
2023-02-11T20:47:17.600Z,15.52
2023-02-11T20:49:44.765Z,15.61
2023-02-11T20:52:11.897Z,15.52
2023-02-11T20:54:38.836Z,15.42
2023-02-11T20:57:05.916Z,15.53
2023-02-11T20:59:32.946Z,15.57
2023-02-11T21:02:01.242Z,15.54
2023-02-11T21:04:30.542Z,15.61
2023-02-11T21:07:00.369Z,15.54
2023-02-11T21:09:33.805Z,15.60
2023-02-11T21:12:01.871Z,15.66
2023-02-11T21:14:32.382Z,15.71
2023-02-11T21:17:00.670Z,15.59
2023-02-11T21:19:28.109Z,15.69
2023-02-11T21:21:54.994Z,15.54
2023-02-11T21:24:22.054Z,15.54
2023-02-11T21:26:49.150Z,15.54
2023-02-11T21:29:16.341Z,15.52
2023-02-11T21:31:43.574Z,15.52
2023-02-11T21:34:12.101Z,15.54
2023-02-11T21:36:39.093Z,15.63
2023-02-11T21:39:06.297Z,15.71
2023-02-11T21:41:33.522Z,15.73
2023-02-11T21:44:00.872Z,15.76
2023-02-11T21:46:53.309Z,15.81
2023-02-11T21:49:23.198Z,15.83
2023-02-11T21:51:50.312Z,15.89
2023-02-11T21:54:17.287Z,15.97
2023-02-11T21:56:44.316Z,15.97
2023-02-11T21:59:13.322Z,16.00
2023-02-11T22:01:41.021Z,16.02
2023-02-11T22:04:08.064Z,16.00
2023-02-11T22:06:36.271Z,15.98
2023-02-11T22:09:06.537Z,15.98
2023-02-11T22:11:34.557Z,16.02
2023-02-11T22:14:01.891Z,16.08
2023-02-11T22:16:29.407Z,16.14
2023-02-11T22:18:57.586Z,16.21
2023-02-11T22:21:28.685Z,16.18
2023-02-11T22:24:03.918Z,16.29
2023-02-11T22:26:30.811Z,16.36
2023-02-11T22:28:58.083Z,16.35
2023-02-11T22:31:29.104Z,16.29
2023-02-11T22:33:56.711Z,16.24
2023-02-11T22:36:26.166Z,16.26
2023-02-11T22:38:54.186Z,16.24
2023-02-11T22:41:23.284Z,16.26
2023-02-11T22:43:50.390Z,16.29
2023-02-11T22:46:20.087Z,16.14
2023-02-11T22:48:49.379Z,16.08
2023-02-11T22:51:19.332Z,16.01
2023-02-11T22:53:51.319Z,16.00
2023-02-11T22:56:18.562Z,15.90
2023-02-11T22:58:47.075Z,15.90
2023-02-11T23:01:18.163Z,15.80
2023-02-11T23:03:45.705Z,15.77
2023-02-11T23:06:12.586Z,15.74
2023-02-11T23:08:41.286Z,15.63
2023-02-11T23:11:12.193Z,15.64
2023-02-11T23:13:42.129Z,15.67
2023-02-11T23:16:14.388Z,15.73
2023-02-11T23:18:45.918Z,15.73
2023-02-11T23:21:16.618Z,15.74
2023-02-11T23:23:44.728Z,15.61
2023-02-11T23:26:14.142Z,15.64
2023-02-11T23:28:41.228Z,15.64
2023-02-11T23:31:18.812Z,15.73
2023-02-11T23:33:47.819Z,15.64
2023-02-11T23:36:23.412Z,15.67
2023-02-11T23:38:51.051Z,15.59
2023-02-11T23:41:19.718Z,15.67
2023-02-11T23:43:50.144Z,15.63
2023-02-11T23:46:19.660Z,15.64
2023-02-11T23:48:46.934Z,15.69
2023-02-11T23:51:13.935Z,15.74
2023-02-11T23:53:41.475Z,15.70
2023-02-11T23:56:11.152Z,15.73
2023-02-11T23:58:38.359Z,15.66
